sensor_id;sensor_type;location;lat;lon;timestamp;temperature;humidity
57058;DHT22;55017;52.848;6.748;2022-08-19T00:46:24;15.60;99.90
57058;DHT22;55017;52.848;6.748;2022-08-19T00:48:50;15.60;99.90
57058;DHT22;55017;52.848;6.748;2022-08-19T00:51:16;15.60;99.90
57058;DHT22;55017;52.848;6.748;2022-08-19T00:53:41;15.60;99.90
57058;DHT22;55017;52.848;6.748;2022-08-19T00:56:09;15.50;99.90
57058;DHT22;55017;52.848;6.748;2022-08-19T00:58:35;15.60;99.90
57058;DHT22;55017;52.848;6.748;2022-08-19T01:01:03;15.60;99.90
57058;DHT22;55017;52.848;6.748;2022-08-19T01:03:29;15.70;99.90
57058;DHT22;55017;52.848;6.748;2022-08-19T01:05:55;15.60;99.90
57058;DHT22;55017;52.848;6.748;2022-08-19T01:08:21;15.60;99.90
57058;DHT22;55017;52.848;6.748;2022-08-19T01:10:52;15.50;99.90
57058;DHT22;55017;52.848;6.748;2022-08-19T01:24:40;15.40;99.90
57058;DHT22;55017;52.848;6.748;2022-08-19T01:27:07;15.40;99.90
57058;DHT22;55017;52.848;6.748;2022-08-19T01:29:33;15.40;99.90
57058;DHT22;55017;52.848;6.748;2022-08-19T01:31:59;15.40;99.90
57058;DHT22;55017;52.848;6.748;2022-08-19T01:34:25;15.40;99.90
57058;DHT22;55017;52.848;6.748;2022-08-19T01:36:51;15.40;99.90
57058;DHT22;55017;52.848;6.748;2022-08-19T01:39:21;15.40;99.90
57058;DHT22;55017;52.848;6.748;2022-08-19T01:41:48;15.30;99.90
57058;DHT22;55017;52.848;6.748;2022-08-19T01:44:14;15.30;99.90
57058;DHT22;55017;52.848;6.748;2022-08-19T01:46:41;15.20;99.90
57058;DHT22;55017;52.848;6.748;2022-08-19T01:49:07;15.20;99.90
57058;DHT22;55017;52.848;6.748;2022-08-19T01:51:33;15.20;99.90
57058;DHT22;55017;52.848;6.748;2022-08-19T01:53:59;15.20;99.90
57058;DHT22;55017;52.848;6.748;2022-08-19T01:56:25;15.10;99.90
57058;DHT22;55017;52.848;6.748;2022-08-19T01:59:00;15.00;99.90
57058;DHT22;55017;52.848;6.748;2022-08-19T02:01:26;15.00;99.90
57058;DHT22;55017;52.848;6.748;2022-08-19T02:03:52;14.90;99.90
57058;DHT22;55017;52.848;6.748;2022-08-19T02:06:18;15.00;99.90
57058;DHT22;55017;52.848;6.748;2022-08-19T02:08:44;14.80;99.90
57058;DHT22;55017;52.848;6.748;2022-08-19T02:11:20;14.90;99.90
57058;DHT22;55017;52.848;6.748;2022-08-19T02:13:46;14.80;99.90
57058;DHT22;55017;52.848;6.748;2022-08-19T02:16:11;14.80;99.90
57058;DHT22;55017;52.848;6.748;2022-08-19T02:18:37;14.80;99.90
57058;DHT22;55017;52.848;6.748;2022-08-19T02:21:03;14.70;99.90
57058;DHT22;55017;52.848;6.748;2022-08-19T02:23:28;14.70;99.90
57058;DHT22;55017;52.848;6.748;2022-08-19T02:25:54;14.70;99.90
57058;DHT22;55017;52.848;6.748;2022-08-19T02:28:20;14.70;99.90
57058;DHT22;55017;52.848;6.748;2022-08-19T02:30:47;14.70;99.90
57058;DHT22;55017;52.848;6.748;2022-08-19T02:33:13;14.80;99.90
57058;DHT22;55017;52.848;6.748;2022-08-19T02:35:44;14.80;99.90
57058;DHT22;55017;52.848;6.748;2022-08-19T02:38:10;14.80;99.90
57058;DHT22;55017;52.848;6.748;2022-08-19T02:40:59;14.90;99.90
57058;DHT22;55017;52.848;6.748;2022-08-19T02:43:26;14.80;99.90
57058;DHT22;55017;52.848;6.748;2022-08-19T02:45:53;14.70;99.90
57058;DHT22;55017;52.848;6.748;2022-08-19T02:48:20;14.80;99.90
57058;DHT22;55017;52.848;6.748;2022-08-19T02:50:47;14.70;99.90
57058;DHT22;55017;52.848;6.748;2022-08-19T02:53:18;14.70;99.90
57058;DHT22;55017;52.848;6.748;2022-08-19T02:55:45;14.80;99.90
57058;DHT22;55017;52.848;6.748;2022-08-19T02:58:11;14.80;99.90
57058;DHT22;55017;52.848;6.748;2022-08-19T03:00:48;14.80;99.90
57058;DHT22;55017;52.848;6.748;2022-08-19T03:03:16;14.70;99.90
57058;DHT22;55017;52.848;6.748;2022-08-19T03:05:42;14.70;99.90
57058;DHT22;55017;52.848;6.748;2022-08-19T03:08:09;14.60;99.90
57058;DHT22;55017;52.848;6.748;2022-08-19T03:10:45;14.50;99.90
57058;DHT22;55017;52.848;6.748;2022-08-19T03:13:17;14.50;99.90
57058;DHT22;55017;52.848;6.748;2022-08-19T03:15:45;14.50;99.90
57058;DHT22;55017;52.848;6.748;2022-08-19T03:18:12;14.40;99.90
57058;DHT22;55017;52.848;6.748;2022-08-19T03:20:42;14.50;99.90
57058;DHT22;55017;52.848;6.748;2022-08-19T03:23:08;14.40;99.90
57058;DHT22;55017;52.848;6.748;2022-08-19T03:25:39;14.40;99.90
57058;DHT22;55017;52.848;6.748;2022-08-19T03:28:09;14.40;99.90
57058;DHT22;55017;52.848;6.748;2022-08-19T03:30:34;14.40;99.90
57058;DHT22;55017;52.848;6.748;2022-08-19T03:33:00;14.40;99.90
57058;DHT22;55017;52.848;6.748;2022-08-19T03:35:27;14.30;99.90
57058;DHT22;55017;52.848;6.748;2022-08-19T03:37:52;14.40;99.90
57058;DHT22;55017;52.848;6.748;2022-08-19T03:40:18;14.40;99.90
57058;DHT22;55017;52.848;6.748;2022-08-19T03:42:44;14.40;99.90
57058;DHT22;55017;52.848;6.748;2022-08-19T03:45:11;14.30;99.90
57058;DHT22;55017;52.848;6.748;2022-08-19T03:47:37;14.40;99.90
57058;DHT22;55017;52.848;6.748;2022-08-19T03:50:04;14.40;99.90
57058;DHT22;55017;52.848;6.748;2022-08-19T03:52:33;14.30;99.90
57058;DHT22;55017;52.848;6.748;2022-08-19T03:54:58;14.30;99.90
57058;DHT22;55017;52.848;6.748;2022-08-19T03:57:24;14.20;99.90
57058;DHT22;55017;52.848;6.748;2022-08-19T03:59:50;14.20;99.90
57058;DHT22;55017;52.848;6.748;2022-08-19T04:02:15;14.30;99.90
57058;DHT22;55017;52.848;6.748;2022-08-19T04:04:43;14.20;99.90
57058;DHT22;55017;52.848;6.748;2022-08-19T04:07:10;14.20;99.90
57058;DHT22;55017;52.848;6.748;2022-08-19T04:09:36;14.10;99.90
57058;DHT22;55017;52.848;6.748;2022-08-19T04:12:03;14.20;99.90
57058;DHT22;55017;52.848;6.748;2022-08-19T04:14:31;14.20;99.90
57058;DHT22;55017;52.848;6.748;2022-08-19T04:16:58;14.10;99.90
57058;DHT22;55017;52.848;6.748;2022-08-19T04:19:24;14.10;99.90
57058;DHT22;55017;52.848;6.748;2022-08-19T04:21:52;14.10;99.90
57058;DHT22;55017;52.848;6.748;2022-08-19T04:24:19;14.10;99.90
57058;DHT22;55017;52.848;6.748;2022-08-19T04:26:46;14.10;99.90
57058;DHT22;55017;52.848;6.748;2022-08-19T04:29:19;14.10;99.90
57058;DHT22;55017;52.848;6.748;2022-08-19T04:31:48;14.20;99.90
57058;DHT22;55017;52.848;6.748;2022-08-19T04:34:15;14.10;99.90
57058;DHT22;55017;52.848;6.748;2022-08-19T04:36:43;14.10;99.90
57058;DHT22;55017;52.848;6.748;2022-08-19T04:39:16;14.10;99.90
57058;DHT22;55017;52.848;6.748;2022-08-19T04:41:42;14.10;99.90
57058;DHT22;55017;52.848;6.748;2022-08-19T04:44:26;14.00;99.90
57058;DHT22;55017;52.848;6.748;2022-08-19T04:46:55;14.10;99.90
57058;DHT22;55017;52.848;6.748;2022-08-19T04:49:22;14.10;99.90
57058;DHT22;55017;52.848;6.748;2022-08-19T04:51:49;14.10;99.90
57058;DHT22;55017;52.848;6.748;2022-08-19T04:54:17;14.00;99.90
57058;DHT22;55017;52.848;6.748;2022-08-19T04:56:45;14.10;99.90
57058;DHT22;55017;52.848;6.748;2022-08-19T04:59:11;14.10;99.90
57058;DHT22;55017;52.848;6.748;2022-08-19T05:01:37;14.10;99.90
57058;DHT22;55017;52.848;6.748;2022-08-19T05:04:04;14.00;99.90
57058;DHT22;55017;52.848;6.748;2022-08-19T05:06:31;14.10;99.90
57058;DHT22;55017;52.848;6.748;2022-08-19T05:09:00;14.10;99.90
57058;DHT22;55017;52.848;6.748;2022-08-19T05:11:28;14.10;99.90
57058;DHT22;55017;52.848;6.748;2022-08-19T05:13:55;14.10;99.90
57058;DHT22;55017;52.848;6.748;2022-08-19T05:16:22;14.00;99.90
57058;DHT22;55017;52.848;6.748;2022-08-19T05:18:48;14.00;99.90
57058;DHT22;55017;52.848;6.748;2022-08-19T05:21:33;14.00;99.90
57058;DHT22;55017;52.848;6.748;2022-08-19T05:24:19;14.10;99.90
57058;DHT22;55017;52.848;6.748;2022-08-19T05:26:47;14.10;99.90
57058;DHT22;55017;52.848;6.748;2022-08-19T05:29:15;14.20;99.90
57058;DHT22;55017;52.848;6.748;2022-08-19T05:31:42;14.20;99.90
57058;DHT22;55017;52.848;6.748;2022-08-19T05:34:08;14.30;99.90
57058;DHT22;55017;52.848;6.748;2022-08-19T05:36:37;14.30;99.90
57058;DHT22;55017;52.848;6.748;2022-08-19T05:39:06;14.40;99.90
57058;DHT22;55017;52.848;6.748;2022-08-19T05:41:32;14.40;99.90
57058;DHT22;55017;52.848;6.748;2022-08-19T05:44:00;14.50;99.90
57058;DHT22;55017;52.848;6.748;2022-08-19T05:46:26;14.60;99.90
57058;DHT22;55017;52.848;6.748;2022-08-19T05:48:52;14.70;99.90
57058;DHT22;55017;52.848;6.748;2022-08-19T05:51:18;14.80;99.90
57058;DHT22;55017;52.848;6.748;2022-08-19T05:53:44;14.90;99.90
57058;DHT22;55017;52.848;6.748;2022-08-19T05:56:15;15.10;99.90
57058;DHT22;55017;52.848;6.748;2022-08-19T05:58:42;15.20;99.90
57058;DHT22;55017;52.848;6.748;2022-08-19T06:01:14;15.30;99.90
57058;DHT22;55017;52.848;6.748;2022-08-19T06:03:40;15.30;99.90
57058;DHT22;55017;52.848;6.748;2022-08-19T06:06:07;15.50;99.90
57058;DHT22;55017;52.848;6.748;2022-08-19T06:08:34;15.60;99.90
57058;DHT22;55017;52.848;6.748;2022-08-19T06:13:40;15.90;99.90
57058;DHT22;55017;52.848;6.748;2022-08-19T06:16:06;16.00;99.90
57058;DHT22;55017;52.848;6.748;2022-08-19T06:18:31;16.10;99.90
57058;DHT22;55017;52.848;6.748;2022-08-19T06:20:58;16.30;99.90
57058;DHT22;55017;52.848;6.748;2022-08-19T06:23:24;16.40;99.90
57058;DHT22;55017;52.848;6.748;2022-08-19T06:25:50;16.60;99.90
57058;DHT22;55017;52.848;6.748;2022-08-19T06:28:16;16.70;99.90
57058;DHT22;55017;52.848;6.748;2022-08-19T06:30:42;16.80;99.90
57058;DHT22;55017;52.848;6.748;2022-08-19T06:33:07;17.00;99.90
57058;DHT22;55017;52.848;6.748;2022-08-19T06:35:37;17.00;99.90
57058;DHT22;55017;52.848;6.748;2022-08-19T06:38:03;17.20;99.90
57058;DHT22;55017;52.848;6.748;2022-08-19T06:40:30;17.40;99.90
57058;DHT22;55017;52.848;6.748;2022-08-19T06:42:56;17.50;99.90
57058;DHT22;55017;52.848;6.748;2022-08-19T06:45:24;17.60;99.90
57058;DHT22;55017;52.848;6.748;2022-08-19T06:47:49;17.80;99.90
57058;DHT22;55017;52.848;6.748;2022-08-19T06:50:19;17.90;99.90
57058;DHT22;55017;52.848;6.748;2022-08-19T06:52:45;18.10;99.90
57058;DHT22;55017;52.848;6.748;2022-08-19T06:55:12;18.20;99.90
57058;DHT22;55017;52.848;6.748;2022-08-19T06:57:37;18.40;99.90
57058;DHT22;55017;52.848;6.748;2022-08-19T07:00:04;18.50;99.90
57058;DHT22;55017;52.848;6.748;2022-08-19T07:02:30;18.60;99.90
57058;DHT22;55017;52.848;6.748;2022-08-19T07:04:56;18.70;99.90
57058;DHT22;55017;52.848;6.748;2022-08-19T07:07:23;18.90;99.90
57058;DHT22;55017;52.848;6.748;2022-08-19T07:09:50;19.00;99.90
57058;DHT22;55017;52.848;6.748;2022-08-19T07:12:16;19.20;99.90
57058;DHT22;55017;52.848;6.748;2022-08-19T07:14:42;19.40;99.90
57058;DHT22;55017;52.848;6.748;2022-08-19T07:17:10;19.50;99.90
57058;DHT22;55017;52.848;6.748;2022-08-19T07:19:38;19.60;99.90
57058;DHT22;55017;52.848;6.748;2022-08-19T07:22:06;19.70;99.90
57058;DHT22;55017;52.848;6.748;2022-08-19T07:24:33;19.90;99.90
57058;DHT22;55017;52.848;6.748;2022-08-19T07:27:00;20.00;99.90
57058;DHT22;55017;52.848;6.748;2022-08-19T07:29:29;20.20;99.90
57058;DHT22;55017;52.848;6.748;2022-08-19T07:31:56;20.30;99.90
57058;DHT22;55017;52.848;6.748;2022-08-19T07:34:25;20.50;99.90
57058;DHT22;55017;52.848;6.748;2022-08-19T07:36:51;20.60;99.90
57058;DHT22;55017;52.848;6.748;2022-08-19T07:39:20;20.70;99.90
57058;DHT22;55017;52.848;6.748;2022-08-19T07:41:47;20.90;99.90
57058;DHT22;55017;52.848;6.748;2022-08-19T07:44:14;21.10;99.90
57058;DHT22;55017;52.848;6.748;2022-08-19T07:46:43;21.20;99.90
57058;DHT22;55017;52.848;6.748;2022-08-19T07:49:10;21.20;99.90
57058;DHT22;55017;52.848;6.748;2022-08-19T07:51:42;21.40;99.90
57058;DHT22;55017;52.848;6.748;2022-08-19T07:54:07;21.50;99.90
57058;DHT22;55017;52.848;6.748;2022-08-19T07:56:33;21.60;99.90
57058;DHT22;55017;52.848;6.748;2022-08-19T07:58:58;21.80;99.90
57058;DHT22;55017;52.848;6.748;2022-08-19T08:01:26;21.90;99.90
57058;DHT22;55017;52.848;6.748;2022-08-19T08:03:53;22.10;99.90
57058;DHT22;55017;52.848;6.748;2022-08-19T08:06:37;22.20;99.90
57058;DHT22;55017;52.848;6.748;2022-08-19T08:09:29;22.40;99.90
57058;DHT22;55017;52.848;6.748;2022-08-19T08:11:59;22.50;99.90
57058;DHT22;55017;52.848;6.748;2022-08-19T08:14:32;22.60;99.90
57058;DHT22;55017;52.848;6.748;2022-08-19T08:16:58;22.80;99.90
57058;DHT22;55017;52.848;6.748;2022-08-19T08:19:25;22.90;99.90
57058;DHT22;55017;52.848;6.748;2022-08-19T08:21:53;23.10;99.90
57058;DHT22;55017;52.848;6.748;2022-08-19T08:24:19;23.20;99.90
57058;DHT22;55017;52.848;6.748;2022-08-19T08:26:45;23.30;99.90
57058;DHT22;55017;52.848;6.748;2022-08-19T08:29:11;23.50;99.90
57058;DHT22;55017;52.848;6.748;2022-08-19T08:31:39;23.60;99.90
57058;DHT22;55017;52.848;6.748;2022-08-19T08:34:05;23.70;99.90
57058;DHT22;55017;52.848;6.748;2022-08-19T08:36:30;23.80;99.90
57058;DHT22;55017;52.848;6.748;2022-08-19T08:38:59;23.80;99.90
57058;DHT22;55017;52.848;6.748;2022-08-19T08:41:34;23.90;99.90
57058;DHT22;55017;52.848;6.748;2022-08-19T08:44:03;24.10;99.90
57058;DHT22;55017;52.848;6.748;2022-08-19T08:46:36;24.20;99.90
57058;DHT22;55017;52.848;6.748;2022-08-19T08:49:29;24.40;99.90
57058;DHT22;55017;52.848;6.748;2022-08-19T08:52:26;24.70;99.90
57058;DHT22;55017;52.848;6.748;2022-08-19T08:54:55;24.70;99.90
57058;DHT22;55017;52.848;6.748;2022-08-19T08:57:39;24.80;99.90
57058;DHT22;55017;52.848;6.748;2022-08-19T09:00:11;24.80;99.90
57058;DHT22;55017;52.848;6.748;2022-08-19T09:02:39;24.90;99.90
57058;DHT22;55017;52.848;6.748;2022-08-19T09:05:05;25.10;99.90
57058;DHT22;55017;52.848;6.748;2022-08-19T09:07:59;25.30;99.90
57058;DHT22;55017;52.848;6.748;2022-08-19T09:15:50;25.50;99.90
57058;DHT22;55017;52.848;6.748;2022-08-19T09:18:17;25.50;99.90
57058;DHT22;55017;52.848;6.748;2022-08-19T09:20:43;25.60;99.90
57058;DHT22;55017;52.848;6.748;2022-08-19T09:23:10;25.80;99.90
57058;DHT22;55017;52.848;6.748;2022-08-19T09:25:36;26.00;99.90
57058;DHT22;55017;52.848;6.748;2022-08-19T09:28:02;26.00;99.90
57058;DHT22;55017;52.848;6.748;2022-08-19T09:30:33;26.10;99.90
57058;DHT22;55017;52.848;6.748;2022-08-19T09:32:59;26.20;99.90
57058;DHT22;55017;52.848;6.748;2022-08-19T09:35:27;26.40;99.90
57058;DHT22;55017;52.848;6.748;2022-08-19T09:37:54;26.40;99.90
57058;DHT22;55017;52.848;6.748;2022-08-19T09:40:20;26.40;99.90
57058;DHT22;55017;52.848;6.748;2022-08-19T09:42:47;26.60;99.90
57058;DHT22;55017;52.848;6.748;2022-08-19T09:45:18;26.70;99.90
57058;DHT22;55017;52.848;6.748;2022-08-19T09:47:45;26.90;99.90
57058;DHT22;55017;52.848;6.748;2022-08-19T09:50:12;27.00;99.90
57058;DHT22;55017;52.848;6.748;2022-08-19T09:52:38;27.10;99.90
57058;DHT22;55017;52.848;6.748;2022-08-19T09:55:09;27.10;99.90
57058;DHT22;55017;52.848;6.748;2022-08-19T09:57:35;27.20;99.90
57058;DHT22;55017;52.848;6.748;2022-08-19T10:00:01;27.20;99.90
57058;DHT22;55017;52.848;6.748;2022-08-19T10:02:26;27.10;99.90
57058;DHT22;55017;52.848;6.748;2022-08-19T10:04:52;27.10;99.80
57058;DHT22;55017;52.848;6.748;2022-08-19T10:07:37;27.20;99.90
57058;DHT22;55017;52.848;6.748;2022-08-19T10:10:05;27.50;99.90
57058;DHT22;55017;52.848;6.748;2022-08-19T10:12:32;27.50;99.90
57058;DHT22;55017;52.848;6.748;2022-08-19T10:14:58;27.60;99.10
57058;DHT22;55017;52.848;6.748;2022-08-19T10:17:24;27.60;99.90
57058;DHT22;55017;52.848;6.748;2022-08-19T10:19:51;27.70;98.90
57058;DHT22;55017;52.848;6.748;2022-08-19T10:22:18;27.80;97.70
57058;DHT22;55017;52.848;6.748;2022-08-19T10:24:45;27.80;97.30
57058;DHT22;55017;52.848;6.748;2022-08-19T10:27:11;27.90;95.70
57058;DHT22;55017;52.848;6.748;2022-08-19T10:29:38;28.00;94.50
57058;DHT22;55017;52.848;6.748;2022-08-19T10:32:06;27.90;94.90
57058;DHT22;55017;52.848;6.748;2022-08-19T10:34:34;28.10;95.70
57058;DHT22;55017;52.848;6.748;2022-08-19T10:37:00;27.90;94.70
57058;DHT22;55017;52.848;6.748;2022-08-19T10:39:27;27.90;94.90
57058;DHT22;55017;52.848;6.748;2022-08-19T10:41:55;28.00;94.10
57058;DHT22;55017;52.848;6.748;2022-08-19T10:44:21;28.10;92.50
57058;DHT22;55017;52.848;6.748;2022-08-19T10:46:48;28.10;91.60
57058;DHT22;55017;52.848;6.748;2022-08-19T10:49:14;28.20;90.10
57058;DHT22;55017;52.848;6.748;2022-08-19T10:51:40;28.30;89.00
57058;DHT22;55017;52.848;6.748;2022-08-19T10:54:25;28.30;87.70
57058;DHT22;55017;52.848;6.748;2022-08-19T10:57:10;28.30;88.80
57058;DHT22;55017;52.848;6.748;2022-08-19T10:59:36;28.50;87.80
57058;DHT22;55017;52.848;6.748;2022-08-19T11:02:05;28.50;84.30
57058;DHT22;55017;52.848;6.748;2022-08-19T11:04:31;28.70;87.30
57058;DHT22;55017;52.848;6.748;2022-08-19T11:06:57;28.80;85.90
57058;DHT22;55017;52.848;6.748;2022-08-19T11:09:25;28.90;86.70
57058;DHT22;55017;52.848;6.748;2022-08-19T11:11:53;28.70;82.80
57058;DHT22;55017;52.848;6.748;2022-08-19T11:14:20;28.80;81.50
57058;DHT22;55017;52.848;6.748;2022-08-19T11:16:47;28.80;80.80
57058;DHT22;55017;52.848;6.748;2022-08-19T11:19:14;29.00;79.30
57058;DHT22;55017;52.848;6.748;2022-08-19T11:21:43;29.10;80.40
57058;DHT22;55017;52.848;6.748;2022-08-19T11:24:13;29.20;80.20
57058;DHT22;55017;52.848;6.748;2022-08-19T11:26:40;29.20;77.50
57058;DHT22;55017;52.848;6.748;2022-08-19T11:29:07;29.40;77.70
57058;DHT22;55017;52.848;6.748;2022-08-19T11:31:37;29.40;76.60
57058;DHT22;55017;52.848;6.748;2022-08-19T11:34:07;29.30;77.60
57058;DHT22;55017;52.848;6.748;2022-08-19T11:36:33;29.20;76.10
57058;DHT22;55017;52.848;6.748;2022-08-19T11:39:00;29.10;81.60
57058;DHT22;55017;52.848;6.748;2022-08-19T11:41:26;29.20;85.60
57058;DHT22;55017;52.848;6.748;2022-08-19T11:43:53;29.50;81.70
57058;DHT22;55017;52.848;6.748;2022-08-19T11:46:22;29.60;78.20
57058;DHT22;55017;52.848;6.748;2022-08-19T11:48:48;29.80;78.10
57058;DHT22;55017;52.848;6.748;2022-08-19T11:51:18;29.70;79.50
57058;DHT22;55017;52.848;6.748;2022-08-19T11:53:44;29.80;77.40
57058;DHT22;55017;52.848;6.748;2022-08-19T11:56:11;30.00;75.20
57058;DHT22;55017;52.848;6.748;2022-08-19T11:58:37;30.10;76.60
57058;DHT22;55017;52.848;6.748;2022-08-19T12:01:10;30.20;74.70
57058;DHT22;55017;52.848;6.748;2022-08-19T12:03:37;30.30;72.60
57058;DHT22;55017;52.848;6.748;2022-08-19T12:06:08;30.40;70.60
57058;DHT22;55017;52.848;6.748;2022-08-19T12:08:35;30.40;71.40
57058;DHT22;55017;52.848;6.748;2022-08-19T12:11:00;30.30;69.10
57058;DHT22;55017;52.848;6.748;2022-08-19T12:13:30;30.30;67.10
57058;DHT22;55017;52.848;6.748;2022-08-19T12:15:56;30.30;67.00
57058;DHT22;55017;52.848;6.748;2022-08-19T12:18:22;30.20;66.90
57058;DHT22;55017;52.848;6.748;2022-08-19T12:20:51;30.10;66.40
57058;DHT22;55017;52.848;6.748;2022-08-19T12:23:17;30.00;66.50
57058;DHT22;55017;52.848;6.748;2022-08-19T12:25:45;30.00;65.40
57058;DHT22;55017;52.848;6.748;2022-08-19T12:28:19;30.10;68.40
57058;DHT22;55017;52.848;6.748;2022-08-19T12:30:45;30.30;67.40
57058;DHT22;55017;52.848;6.748;2022-08-19T12:33:11;30.10;65.00
57058;DHT22;55017;52.848;6.748;2022-08-19T12:35:43;29.90;66.80
57058;DHT22;55017;52.848;6.748;2022-08-19T12:38:10;29.80;68.10
57058;DHT22;55017;52.848;6.748;2022-08-19T12:40:35;29.90;68.30
57058;DHT22;55017;52.848;6.748;2022-08-19T12:43:01;29.90;65.40
57058;DHT22;55017;52.848;6.748;2022-08-19T12:45:27;29.80;62.70
57058;DHT22;55017;52.848;6.748;2022-08-19T12:47:53;29.80;64.40
57058;DHT22;55017;52.848;6.748;2022-08-19T12:50:19;29.70;61.60
57058;DHT22;55017;52.848;6.748;2022-08-19T12:52:47;29.80;63.00
57058;DHT22;55017;52.848;6.748;2022-08-19T12:55:13;29.80;61.90
57058;DHT22;55017;52.848;6.748;2022-08-19T12:57:39;29.70;63.20
57058;DHT22;55017;52.848;6.748;2022-08-19T13:00:15;29.70;63.10
57058;DHT22;55017;52.848;6.748;2022-08-19T13:02:43;29.50;62.50
57058;DHT22;55017;52.848;6.748;2022-08-19T13:05:12;29.50;62.00
57058;DHT22;55017;52.848;6.748;2022-08-19T13:07:39;29.40;63.00
57058;DHT22;55017;52.848;6.748;2022-08-19T13:10:08;29.30;60.50
57058;DHT22;55017;52.848;6.748;2022-08-19T13:12:34;29.20;58.20
57058;DHT22;55017;52.848;6.748;2022-08-19T13:15:00;29.10;58.60
57058;DHT22;55017;52.848;6.748;2022-08-19T13:17:25;29.00;58.80
57058;DHT22;55017;52.848;6.748;2022-08-19T13:19:52;28.90;59.20
57058;DHT22;55017;52.848;6.748;2022-08-19T13:22:17;28.80;59.00
57058;DHT22;55017;52.848;6.748;2022-08-19T13:24:43;28.90;60.40
57058;DHT22;55017;52.848;6.748;2022-08-19T13:27:09;28.80;59.90
57058;DHT22;55017;52.848;6.748;2022-08-19T13:29:35;28.70;58.10
57058;DHT22;55017;52.848;6.748;2022-08-19T13:32:19;29.10;58.20
57058;DHT22;55017;52.848;6.748;2022-08-19T13:35:04;29.40;58.00
57058;DHT22;55017;52.848;6.748;2022-08-19T13:37:30;29.60;55.40
57058;DHT22;55017;52.848;6.748;2022-08-19T13:40:22;29.90;55.30
57058;DHT22;55017;52.848;6.748;2022-08-19T13:42:51;29.90;56.20
57058;DHT22;55017;52.848;6.748;2022-08-19T13:45:20;29.80;55.20
57058;DHT22;55017;52.848;6.748;2022-08-19T13:47:48;29.50;55.00
57058;DHT22;55017;52.848;6.748;2022-08-19T13:50:16;29.40;56.40
57058;DHT22;55017;52.848;6.748;2022-08-19T13:52:43;29.20;56.00
57058;DHT22;55017;52.848;6.748;2022-08-19T13:55:10;29.10;57.20
57058;DHT22;55017;52.848;6.748;2022-08-19T13:57:36;29.00;57.60
57058;DHT22;55017;52.848;6.748;2022-08-19T14:00:07;28.90;57.10
57058;DHT22;55017;52.848;6.748;2022-08-19T14:02:35;28.90;57.10
57058;DHT22;55017;52.848;6.748;2022-08-19T14:05:03;28.80;56.40
57058;DHT22;55017;52.848;6.748;2022-08-19T14:07:29;28.80;56.30
57058;DHT22;55017;52.848;6.748;2022-08-19T14:09:55;29.10;56.40
57058;DHT22;55017;52.848;6.748;2022-08-19T14:12:21;29.60;56.10
57058;DHT22;55017;52.848;6.748;2022-08-19T14:14:47;30.10;56.70
57058;DHT22;55017;52.848;6.748;2022-08-19T14:17:13;30.30;55.80
57058;DHT22;55017;52.848;6.748;2022-08-19T14:19:38;30.80;54.60
57058;DHT22;55017;52.848;6.748;2022-08-19T14:22:04;32.00;53.50
57058;DHT22;55017;52.848;6.748;2022-08-19T14:24:30;32.80;51.90
57058;DHT22;55017;52.848;6.748;2022-08-19T14:26:58;33.40;50.70
57058;DHT22;55017;52.848;6.748;2022-08-19T14:29:24;33.00;49.80
57058;DHT22;55017;52.848;6.748;2022-08-19T14:31:49;32.40;51.40
57058;DHT22;55017;52.848;6.748;2022-08-19T14:34:15;31.90;52.40
57058;DHT22;55017;52.848;6.748;2022-08-19T14:36:41;31.40;55.10
57058;DHT22;55017;52.848;6.748;2022-08-19T14:39:07;30.80;57.10
57058;DHT22;55017;52.848;6.748;2022-08-19T14:41:33;30.20;59.70
57058;DHT22;55017;52.848;6.748;2022-08-19T14:43:59;29.60;61.40
57058;DHT22;55017;52.848;6.748;2022-08-19T14:46:27;29.20;64.30
57058;DHT22;55017;52.848;6.748;2022-08-19T14:48:54;28.90;68.20
57058;DHT22;55017;52.848;6.748;2022-08-19T14:51:21;28.60;70.90
57058;DHT22;55017;52.848;6.748;2022-08-19T14:53:47;28.50;74.70
57058;DHT22;55017;52.848;6.748;2022-08-19T14:56:20;28.20;78.50
57058;DHT22;55017;52.848;6.748;2022-08-19T14:58:46;28.20;81.50
57058;DHT22;55017;52.848;6.748;2022-08-19T15:01:13;28.10;87.70
57058;DHT22;55017;52.848;6.748;2022-08-19T15:03:39;27.80;90.80
57058;DHT22;55017;52.848;6.748;2022-08-19T15:06:07;27.70;94.30
57058;DHT22;55017;52.848;6.748;2022-08-19T15:08:35;27.70;95.90
57058;DHT22;55017;52.848;6.748;2022-08-19T15:11:02;27.90;96.30
57058;DHT22;55017;52.848;6.748;2022-08-19T15:13:29;27.90;96.40
57058;DHT22;55017;52.848;6.748;2022-08-19T15:15:55;28.00;97.10
57058;DHT22;55017;52.848;6.748;2022-08-19T15:18:22;27.90;96.70
57058;DHT22;55017;52.848;6.748;2022-08-19T15:20:48;27.80;96.60
57058;DHT22;55017;52.848;6.748;2022-08-19T15:23:16;27.60;96.90
57058;DHT22;55017;52.848;6.748;2022-08-19T15:25:42;27.40;97.20
57058;DHT22;55017;52.848;6.748;2022-08-19T15:28:09;27.20;98.70
57058;DHT22;55017;52.848;6.748;2022-08-19T15:30:37;27.10;99.10
57058;DHT22;55017;52.848;6.748;2022-08-19T15:33:04;27.10;99.60
57058;DHT22;55017;52.848;6.748;2022-08-19T15:35:30;26.90;99.80
57058;DHT22;55017;52.848;6.748;2022-08-19T15:37:56;26.80;99.90
57058;DHT22;55017;52.848;6.748;2022-08-19T15:40:24;26.70;99.90
57058;DHT22;55017;52.848;6.748;2022-08-19T15:42:50;26.70;99.90
57058;DHT22;55017;52.848;6.748;2022-08-19T15:45:17;26.60;99.90
57058;DHT22;55017;52.848;6.748;2022-08-19T15:47:44;26.50;99.90
57058;DHT22;55017;52.848;6.748;2022-08-19T15:50:13;26.40;99.90
57058;DHT22;55017;52.848;6.748;2022-08-19T15:52:54;26.30;99.90
57058;DHT22;55017;52.848;6.748;2022-08-19T15:55:22;26.20;99.90
57058;DHT22;55017;52.848;6.748;2022-08-19T15:57:48;26.10;99.90
57058;DHT22;55017;52.848;6.748;2022-08-19T16:00:32;26.00;99.90
57058;DHT22;55017;52.848;6.748;2022-08-19T16:03:18;25.90;99.90
57058;DHT22;55017;52.848;6.748;2022-08-19T16:06:03;25.80;99.90
57058;DHT22;55017;52.848;6.748;2022-08-19T16:08:47;25.80;99.90
57058;DHT22;55017;52.848;6.748;2022-08-19T16:11:17;25.80;99.90
57058;DHT22;55017;52.848;6.748;2022-08-19T16:13:45;25.80;99.90
57058;DHT22;55017;52.848;6.748;2022-08-19T16:16:11;25.90;99.90
57058;DHT22;55017;52.848;6.748;2022-08-19T16:18:38;25.80;99.90
57058;DHT22;55017;52.848;6.748;2022-08-19T16:21:05;25.80;99.90
57058;DHT22;55017;52.848;6.748;2022-08-19T16:23:33;25.80;99.90
57058;DHT22;55017;52.848;6.748;2022-08-19T16:25:58;25.70;99.90
57058;DHT22;55017;52.848;6.748;2022-08-19T16:28:24;25.70;99.90
57058;DHT22;55017;52.848;6.748;2022-08-19T16:30:50;25.60;99.90
57058;DHT22;55017;52.848;6.748;2022-08-19T16:33:15;25.50;99.90
57058;DHT22;55017;52.848;6.748;2022-08-19T16:35:41;25.40;99.90
57058;DHT22;55017;52.848;6.748;2022-08-19T16:38:06;25.30;99.90
57058;DHT22;55017;52.848;6.748;2022-08-19T16:40:33;25.30;99.90